Weather at Twin Cities Airport [CLOSED]

Public forecast

Using degrees Fahrenheit for public forecast. Weather courtesy of forecast.io.

Closest aviation weather report (METAR) to Twin Cities Airport

Closest report is Fort Smith Regional Airport, 5.2 nm (9.7 km) SSW. Retrieved 2022/05/22 22:53 UTC (10 minutes ago):

KFSM 222253Z 09010KT 10SM OVC033 17/10 A3023 RMK AO2 SLP234 T01720100

Closest aviation forecast (TAF) to Twin Cities Airport

Closest forecast is Fort Smith Regional Airport, 5.2 nm (9.7 km) SSW. Retrieved 2022/05/22 18:30 UTC (5 hours ago):

TAF KFSM 221727Z 2218/2318 06013KT P6SM OVC040 FM230200 09005KT P6SM OVC040